This is the latest recevied weather packets stored in our database for station/object UR3PDA-3. If no packets are shown the sender has not sent any weather packets the latest 1 day(s).
| Time | Temp. | Humidity | Pressure | Rain* | Wind** | Luminosity | Snow |
|---|---|---|---|---|---|---|---|
| 1778192646 | 18.33° C | 37% | 984.6 hPa | - | - | - | - |
| 1778191565 | 18.33° C | 37% | 984.5 hPa | - | - | - | - |
| 1778189403 | 18.33° C | 36% | 984.6 hPa | - | - | - | - |
| 1778187241 | 18.33° C | 34% | 984.5 hPa | - | - | - | - |
| 1778185439 | 19.44° C | 30% | 984.2 hPa | - | - | - | - |
| 1778184358 | 18.89° C | 31% | 984.3 hPa | - | - | - | - |
| 1778183277 | 20° C | 28% | 984.2 hPa | - | - | - | - |
| 1778182196 | 20° C | 28% | 984.2 hPa | - | - | - | - |
| 1778181115 | 20.56° C | 29% | 984.2 hPa | - | - | - | - |
| 1778179674 | 20.56° C | 29% | 984.1 hPa | - | - | - | - |
| 1778178953 | 20.56° C | 26% | 984.1 hPa | - | - | - | - |
| 1778177872 | 21.11° C | 23% | 984.1 hPa | - | - | - | - |
| 1778176791 | 21.67° C | 23% | 983.9 hPa | - | - | - | - |
| 1778175710 | 22.78° C | 22% | 983.5 hPa | - | - | - | - |
| 1778174629 | 22.78° C | 22% | 983.3 hPa | - | - | - | - |
| 1778173908 | 22.78° C | 20% | 983.2 hPa | - | - | - | - |
| 1778172827 | 23.33° C | 20% | 983.1 hPa | - | - | - | - |
| 1778172106 | 23.33° C | 20% | 983.1 hPa | - | - | - | - |
| 1778171746 | 23.33° C | 20% | 983 hPa | - | - | - | - |
| 1778171385 | 23.89° C | 20% | 982.9 hPa | - | - | - | - |
| 1778171025 | 23.89° C | 20% | 982.8 hPa | - | - | - | - |
| 1778169223 | 24.44° C | 19% | 982.5 hPa | - | - | - | - |
| 1778168863 | 24.44° C | 19% | 982.4 hPa | - | - | - | - |
| 1778168142 | 25° C | 19% | 982.4 hPa | - | - | - | - |
| 1778167782 | 25° C | 19% | 982.3 hPa | - | - | - | - |
* Rain since midnight (hover to see other rain measurements)
** Current wind speed in m/s (hover to see current wind gust speed)